Time;durP1;ratioP1;P1;durP2;ratioP2;P2;SDS_P1;SDS_P2;PMS_P1;PMS_P2;Temp;Humidity;BMP_temperature;BMP_pressure;BME280_temperature;BME280_humidity;BME280_pressure;Samples;Min_cycle;Max_cycle;Signal;HPM_P1;HPM_P2
2021/08/06 00:02:11;;;;;;;9.32;8.63;;;15.60;99.90;;;;;;5065427;28;20036;-65
2021/08/06 00:04:36;;;;;;;11.43;10.27;;;15.60;99.90;;;;;;5065513;28;20039;-65
2021/08/06 00:07:03;;;;;;;10.75;9.88;;;15.60;99.90;;;;;;5065559;28;20040;-65
2021/08/06 00:09:32;;;;;;;10.95;9.82;;;15.60;99.90;;;;;;5063659;28;20045;-65
2021/08/06 00:11:58;;;;;;;11.07;10.15;;;15.60;99.90;;;;;;5065034;28;20043;-65
2021/08/06 00:14:27;;;;;;;10.02;9.23;;;15.50;99.90;;;;;;5064023;28;20040;-65
2021/08/06 00:16:53;;;;;;;10.75;9.85;;;15.50;99.90;;;;;;5065898;28;20913;-65
2021/08/06 00:19:19;;;;;;;10.43;9.52;;;15.50;99.90;;;;;;5062096;28;20059;-65
2021/08/06 00:21:46;;;;;;;10.77;9.82;;;15.50;99.90;;;;;;5065260;28;20466;-65
2021/08/06 00:24:12;;;;;;;10.35;9.32;;;15.50;99.90;;;;;;5063847;28;20082;-65
2021/08/06 00:26:37;;;;;;;10.77;9.95;;;15.50;99.90;;;;;;5065432;28;20098;-65
2021/08/06 00:29:03;;;;;;;11.65;10.55;;;15.50;99.90;;;;;;5064920;28;20035;-65
2021/08/06 00:31:29;;;;;;;11.52;10.48;;;15.50;99.90;;;;;;5064478;28;20043;-65
2021/08/06 00:33:54;;;;;;;10.32;9.43;;;15.40;99.90;;;;;;5064581;28;20544;-65
2021/08/06 00:36:20;;;;;;;11.48;10.45;;;15.40;99.90;;;;;;5064910;28;20032;-65
2021/08/06 00:38:46;;;;;;;11.75;10.75;;;15.30;99.90;;;;;;5064551;28;20048;-65
2021/08/06 00:41:12;;;;;;;11.02;10.07;;;15.40;99.90;;;;;;5064774;28;20134;-65
2021/08/06 00:43:37;;;;;;;12.45;11.13;;;15.40;99.90;;;;;;5064119;28;20037;-65
2021/08/06 00:46:04;;;;;;;11.80;10.80;;;15.40;99.90;;;;;;5064415;28;20039;-65
2021/08/06 00:48:31;;;;;;;12.27;11.15;;;15.40;99.90;;;;;;5062345;28;20092;-65
2021/08/06 00:50:58;;;;;;;11.95;10.82;;;15.40;99.90;;;;;;5064538;28;20098;-65
2021/08/06 00:53:24;;;;;;;12.15;11.15;;;15.30;99.90;;;;;;5062327;28;20071;-65
2021/08/06 00:55:50;;;;;;;15.15;11.98;;;15.30;99.90;;;;;;5064383;28;20029;-65
2021/08/06 00:58:16;;;;;;;12.57;11.43;;;15.30;99.90;;;;;;5063748;28;20119;-65
2021/08/06 01:00:42;;;;;;;12.52;11.43;;;15.30;99.90;;;;;;5063361;28;20124;-65
2021/08/06 01:03:16;;;;;;;13.60;12.30;;;15.30;99.90;;;;;;5064856;28;20478;-65
2021/08/06 01:05:46;;;;;;;13.05;11.82;;;15.40;99.90;;;;;;5063095;28;20043;-65
2021/08/06 01:08:36;;;;;;;12.70;11.60;;;15.30;99.90;;;;;;5063617;28;20056;-65
2021/08/06 01:11:03;;;;;;;13.18;11.82;;;15.30;99.90;;;;;;5063472;28;20036;-65
2021/08/06 01:13:30;;;;;;;13.73;12.57;;;15.40;99.90;;;;;;5065122;28;20040;-65
2021/08/06 01:16:00;;;;;;;13.75;12.45;;;15.40;99.90;;;;;;5064975;28;20040;-65
2021/08/06 01:18:29;;;;;;;13.77;12.40;;;15.40;99.90;;;;;;5063846;28;20066;-65
2021/08/06 01:20:56;;;;;;;13.18;11.98;;;15.40;99.90;;;;;;5064163;28;20040;-65
2021/08/06 01:23:30;;;;;;;12.27;11.07;;;15.40;99.90;;;;;;5063842;28;20040;-65
2021/08/06 01:26:03;;;;;;;14.25;12.95;;;15.40;99.90;;;;;;5064720;28;20036;-65
2021/08/06 01:28:36;;;;;;;13.30;12.20;;;15.40;99.90;;;;;;5061014;28;20054;-65
2021/08/06 01:31:03;;;;;;;12.45;11.45;;;15.40;99.90;;;;;;5063044;28;20036;-65
2021/08/06 01:33:29;;;;;;;14.43;13.20;;;15.40;99.90;;;;;;5063276;28;20036;-65
2021/08/06 01:35:55;;;;;;;12.23;11.10;;;15.40;99.90;;;;;;5064049;28;20051;-65
2021/08/06 01:38:21;;;;;;;12.90;11.80;;;15.40;99.90;;;;;;5062423;28;20051;-65
2021/08/06 01:41:17;;;;;;;12.43;11.32;;;15.40;99.90;;;;;;5063855;28;20044;-65
2021/08/06 01:44:16;;;;;;;13.20;12.10;;;15.40;99.90;;;;;;5063371;28;21299;-65
2021/08/06 01:46:50;;;;;;;12.93;11.93;;;15.50;99.90;;;;;;5063629;28;20090;-65
2021/08/06 01:49:31;;;;;;;12.55;11.25;;;15.50;99.90;;;;;;5062139;28;20047;-65
2021/08/06 01:52:20;;;;;;;13.23;12.15;;;15.50;99.90;;;;;;5062623;28;20063;-65
2021/08/06 01:54:48;;;;;;;13.35;12.02;;;15.50;99.90;;;;;;5062141;28;20064;-65
2021/08/06 01:57:14;;;;;;;13.68;12.38;;;15.50;99.90;;;;;;5062483;28;20491;-65
2021/08/06 01:59:40;;;;;;;12.98;11.93;;;15.60;99.90;;;;;;5064364;28;20036;-65
2021/08/06 02:02:07;;;;;;;13.27;12.18;;;15.60;99.90;;;;;;5061529;28;20040;-65
2021/08/06 02:04:34;;;;;;;13.32;12.15;;;15.60;99.90;;;;;;5063892;28;20037;-65
2021/08/06 02:07:00;;;;;;;13.90;12.70;;;15.60;99.90;;;;;;5063079;28;20032;-65
2021/08/06 02:09:26;;;;;;;13.52;12.23;;;15.60;99.90;;;;;;5063228;28;20079;-65
2021/08/06 02:11:52;;;;;;;14.30;12.02;;;15.60;99.90;;;;;;5063186;28;20398;-65
2021/08/06 02:14:20;;;;;;;12.00;10.88;;;15.60;99.90;;;;;;5066361;28;20055;-65
2021/08/06 02:16:48;;;;;;;12.63;11.52;;;15.60;99.90;;;;;;5067904;28;20494;-65
2021/08/06 02:19:16;;;;;;;12.65;11.55;;;15.60;99.90;;;;;;5066338;28;20475;-65
2021/08/06 02:21:46;;;;;;;13.60;12.30;;;15.60;99.90;;;;;;5067543;28;20044;-65
2021/08/06 02:24:13;;;;;;;12.80;11.70;;;15.60;99.90;;;;;;5066770;28;20098;-65
2021/08/06 02:26:43;;;;;;;13.40;12.27;;;15.60;99.90;;;;;;5067961;28;20047;-65
2021/08/06 02:29:11;;;;;;;12.35;11.25;;;15.60;99.90;;;;;;5067005;28;20039;-65
2021/08/06 02:31:39;;;;;;;12.80;11.60;;;15.60;99.90;;;;;;5068685;28;20040;-65
2021/08/06 02:34:05;;;;;;;13.15;12.05;;;15.60;99.90;;;;;;5071831;28;20569;-65
2021/08/06 02:36:31;;;;;;;13.38;12.13;;;15.60;99.90;;;;;;5066415;28;20035;-65
2021/08/06 02:38:59;;;;;;;12.48;11.48;;;15.60;99.90;;;;;;5068013;28;20028;-65
2021/08/06 02:41:28;;;;;;;12.75;11.55;;;15.60;99.90;;;;;;5069956;28;20044;-65
2021/08/06 02:43:55;;;;;;;13.07;11.85;;;15.60;99.90;;;;;;5070736;28;20108;-65
2021/08/06 02:46:21;;;;;;;13.80;12.40;;;15.60;99.90;;;;;;5070511;28;20614;-65
2021/08/06 02:48:47;;;;;;;13.43;11.55;;;15.70;99.90;;;;;;5068148;28;20035;-65
2021/08/06 02:51:12;;;;;;;12.43;11.20;;;15.70;99.90;;;;;;5070233;28;20041;-65
2021/08/06 02:53:38;;;;;;;12.90;11.57;;;15.70;99.90;;;;;;5070843;28;20517;-65
2021/08/06 02:56:04;;;;;;;12.07;10.93;;;15.70;99.90;;;;;;5069613;28;20032;-65
2021/08/06 02:58:30;;;;;;;12.45;11.35;;;15.70;99.90;;;;;;5069709;28;20040;-65
2021/08/06 03:00:56;;;;;;;12.38;11.38;;;15.70;99.90;;;;;;5070478;28;20037;-65
2021/08/06 03:03:21;;;;;;;13.57;12.18;;;15.70;99.90;;;;;;5071530;28;20037;-65
2021/08/06 03:05:47;;;;;;;13.43;11.93;;;15.70;99.90;;;;;;5069800;28;20039;-65
2021/08/06 03:08:13;;;;;;;12.85;11.65;;;15.70;99.90;;;;;;5067994;28;20410;-65
2021/08/06 03:10:39;;;;;;;13.38;12.27;;;15.80;99.90;;;;;;5069246;28;20042;-65
2021/08/06 03:13:05;;;;;;;12.13;10.95;;;15.70;99.90;;;;;;5070721;28;20044;-65
2021/08/06 03:15:30;;;;;;;11.73;10.75;;;15.80;99.90;;;;;;5069062;28;20058;-65
2021/08/06 03:17:57;;;;;;;13.30;11.93;;;15.80;99.90;;;;;;5068279;28;20040;-65
2021/08/06 03:20:23;;;;;;;13.02;11.88;;;15.80;99.90;;;;;;5070073;28;20036;-65
2021/08/06 03:22:50;;;;;;;12.57;11.15;;;15.80;99.90;;;;;;5070585;28;20043;-65
2021/08/06 03:25:17;;;;;;;12.90;10.73;;;15.80;99.90;;;;;;5068581;28;20041;-65
2021/08/06 03:27:44;;;;;;;13.63;12.35;;;15.80;99.90;;;;;;5068129;28;20131;-65
2021/08/06 03:30:12;;;;;;;12.05;11.05;;;15.80;99.90;;;;;;5068829;28;20076;-65
2021/08/06 03:32:39;;;;;;;11.27;10.25;;;15.80;99.90;;;;;;5070714;28;20105;-65
2021/08/06 03:35:06;;;;;;;12.50;11.15;;;15.80;99.90;;;;;;5069270;28;20047;-65
2021/08/06 03:37:32;;;;;;;11.85;10.85;;;15.80;99.90;;;;;;5069696;28;20036;-65
2021/08/06 03:39:58;;;;;;;11.63;10.52;;;15.80;99.90;;;;;;5070852;28;20036;-65
2021/08/06 03:42:23;;;;;;;12.48;11.35;;;15.80;99.90;;;;;;5070009;28;20036;-65
2021/08/06 03:44:49;;;;;;;12.60;11.50;;;15.80;99.90;;;;;;5070466;28;20063;-65
2021/08/06 03:47:15;;;;;;;12.82;11.63;;;15.90;99.90;;;;;;5065824;28;20106;-65
2021/08/06 03:49:42;;;;;;;13.05;11.57;;;15.90;99.90;;;;;;5070576;28;20056;-65
2021/08/06 03:52:07;;;;;;;13.88;10.85;;;15.80;99.90;;;;;;5069507;28;20036;-65
2021/08/06 03:54:33;;;;;;;11.80;10.50;;;15.90;99.90;;;;;;5069732;28;20044;-65
2021/08/06 03:56:59;;;;;;;12.13;10.85;;;15.90;99.90;;;;;;5066304;28;20516;-65
2021/08/06 03:59:25;;;;;;;12.55;11.35;;;15.90;99.90;;;;;;5068679;28;20086;-65
2021/08/06 04:01:51;;;;;;;13.15;11.82;;;15.90;99.90;;;;;;5070010;28;20051;-65
2021/08/06 04:04:17;;;;;;;12.23;11.18;;;15.90;99.90;;;;;;5066296;28;20036;-65
2021/08/06 04:06:43;;;;;;;12.50;11.23;;;15.90;99.90;;;;;;5068662;28;20033;-65
2021/08/06 04:09:08;;;;;;;12.30;11.05;;;15.90;99.90;;;;;;5067992;28;20105;-65
2021/08/06 04:11:34;;;;;;;12.95;11.65;;;15.90;99.90;;;;;;5068964;28;20068;-65
2021/08/06 04:14:00;;;;;;;13.02;11.65;;;15.90;99.90;;;;;;5069182;28;20085;-65
2021/08/06 04:16:25;;;;;;;13.27;11.88;;;15.90;99.90;;;;;;5064845;28;20068;-65
2021/08/06 04:18:51;;;;;;;11.88;10.93;;;15.90;99.90;;;;;;5069484;28;20032;-65
2021/08/06 04:21:18;;;;;;;11.82;10.75;;;15.90;99.90;;;;;;5069017;28;20039;-65
2021/08/06 04:23:43;;;;;;;13.15;11.90;;;15.90;99.90;;;;;;5066901;28;20501;-65
2021/08/06 04:26:10;;;;;;;12.15;11.05;;;16.00;99.90;;;;;;5068499;28;20085;-65
2021/08/06 04:28:36;;;;;;;11.43;10.43;;;16.00;99.90;;;;;;5067505;28;20069;-65
2021/08/06 04:31:04;;;;;;;12.38;11.27;;;16.00;99.90;;;;;;5068350;28;20048;-65
2021/08/06 04:33:31;;;;;;;12.52;11.32;;;16.00;99.90;;;;;;5065875;28;20048;-65
2021/08/06 04:35:58;;;;;;;12.25;10.85;;;16.10;99.90;;;;;;5067233;28;20052;-65
2021/08/06 04:38:24;;;;;;;12.32;11.27;;;16.10;99.90;;;;;;5069005;28;20119;-65
2021/08/06 04:40:50;;;;;;;13.10;10.10;;;16.10;99.90;;;;;;5068054;28;20033;-65
2021/08/06 04:43:33;;;;;;;11.60;10.50;;;16.20;99.90;;;;;;5068581;28;20102;-65
2021/08/06 04:45:59;;;;;;;11.52;10.45;;;16.20;99.90;;;;;;5067563;28;20028;-65
2021/08/06 04:48:25;;;;;;;11.30;10.27;;;16.20;99.90;;;;;;5067742;28;20136;-65
2021/08/06 04:50:51;;;;;;;10.38;9.38;;;16.30;99.90;;;;;;5068448;28;20033;-65
2021/08/06 04:53:17;;;;;;;10.88;9.65;;;16.30;99.90;;;;;;5067467;28;20045;-65
2021/08/06 04:55:42;;;;;;;10.30;9.40;;;16.40;99.90;;;;;;5065956;28;20380;-65
2021/08/06 04:58:08;;;;;;;10.57;9.68;;;16.40;99.90;;;;;;5067987;28;20048;-65
2021/08/06 05:00:34;;;;;;;9.73;8.45;;;16.50;99.90;;;;;;5068598;28;20047;-65
2021/08/06 05:03:00;;;;;;;11.68;8.98;;;16.50;99.90;;;;;;5068239;28;20032;-66
2021/08/06 05:05:26;;;;;;;10.25;9.25;;;16.50;99.90;;;;;;5064097;28;20047;-65
2021/08/06 05:07:53;;;;;;;10.07;9.07;;;16.50;99.90;;;;;;5064196;28;20059;-65
2021/08/06 05:10:20;;;;;;;10.93;9.82;;;16.50;99.90;;;;;;5064535;28;20117;-65
2021/08/06 05:12:46;;;;;;;11.48;10.35;;;16.50;99.90;;;;;;5063521;28;20036;-65
2021/08/06 05:15:13;;;;;;;11.82;9.48;;;16.50;99.90;;;;;;5063482;28;20137;-65
2021/08/06 05:17:39;;;;;;;12.57;9.23;;;16.50;99.90;;;;;;5061894;28;20456;-65
2021/08/06 05:20:05;;;;;;;10.00;9.00;;;16.60;99.90;;;;;;5063613;28;20121;-65
2021/08/06 05:22:31;;;;;;;9.77;8.77;;;16.60;99.90;;;;;;5063143;28;20351;-65
2021/08/06 05:24:58;;;;;;;9.30;8.50;;;16.70;99.90;;;;;;5062668;28;20036;-65
2021/08/06 05:27:24;;;;;;;9.05;8.25;;;16.80;99.90;;;;;;5063168;28;20036;-66
2021/08/06 05:29:50;;;;;;;9.55;8.13;;;16.90;99.90;;;;;;5062105;28;20076;-65
2021/08/06 05:32:16;;;;;;;8.20;7.43;;;17.10;99.90;;;;;;5064577;28;20556;-66
2021/08/06 05:34:41;;;;;;;8.23;7.43;;;17.20;99.90;;;;;;5063921;28;20040;-65
2021/08/06 05:37:07;;;;;;;8.50;7.30;;;17.30;99.90;;;;;;5063693;28;20395;-65
2021/08/06 05:39:33;;;;;;;9.13;7.60;;;17.70;99.90;;;;;;5064885;28;20036;-66
2021/08/06 05:41:58;;;;;;;8.35;7.65;;;17.70;99.90;;;;;;5064533;28;20036;-65
2021/08/06 05:44:24;;;;;;;7.70;7.10;;;17.90;99.90;;;;;;5063510;28;20071;-66
2021/08/06 05:46:50;;;;;;;8.52;7.00;;;18.00;99.90;;;;;;5063908;28;20058;-66
2021/08/06 05:49:15;;;;;;;8.00;6.45;;;18.00;99.90;;;;;;5060765;28;20047;-66
2021/08/06 05:51:41;;;;;;;7.13;6.43;;;18.00;99.90;;;;;;5061646;28;20047;-66
2021/08/06 05:54:07;;;;;;;9.88;6.07;;;18.00;99.90;;;;;;5064334;28;20467;-65
2021/08/06 05:56:32;;;;;;;6.53;5.82;;;18.00;99.90;;;;;;5063345;28;20036;-65
2021/08/06 05:58:58;;;;;;;7.50;6.78;;;17.90;99.90;;;;;;5064102;28;20113;-65
2021/08/06 06:01:24;;;;;;;8.13;6.90;;;17.90;99.90;;;;;;5064126;28;20036;-66
2021/08/06 06:03:50;;;;;;;5.55;5.05;;;17.90;99.90;;;;;;5064526;28;20078;-66
2021/08/06 06:06:16;;;;;;;6.35;5.78;;;17.90;99.90;;;;;;5063939;28;20475;-66
2021/08/06 06:08:41;;;;;;;7.32;6.72;;;17.90;99.90;;;;;;5063815;28;20041;-66
2021/08/06 06:11:07;;;;;;;6.28;5.45;;;17.90;99.90;;;;;;5062925;28;20043;-67
2021/08/06 06:13:35;;;;;;;7.07;5.97;;;17.80;99.90;;;;;;5060698;28;20037;-67
2021/08/06 06:16:05;;;;;;;7.63;6.20;;;17.90;99.90;;;;;;5062304;28;20036;-67
2021/08/06 06:18:31;;;;;;;6.40;5.90;;;17.90;99.90;;;;;;5062904;28;20040;-67
2021/08/06 06:20:56;;;;;;;7.75;6.20;;;17.90;99.90;;;;;;5063746;28;20107;-68
2021/08/06 06:23:22;;;;;;;7.93;6.75;;;17.90;99.90;;;;;;5063926;28;20071;-69
2021/08/06 06:25:50;;;;;;;6.60;6.00;;;18.00;99.90;;;;;;5062026;28;20505;-68
2021/08/06 06:28:16;;;;;;;5.78;5.28;;;17.90;99.90;;;;;;5063887;28;20040;-68
2021/08/06 06:30:42;;;;;;;6.00;5.40;;;17.90;99.90;;;;;;5061633;28;20093;-68
2021/08/06 06:33:08;;;;;;;6.32;4.88;;;17.90;99.90;;;;;;5063261;28;20055;-68
2021/08/06 06:35:34;;;;;;;6.68;5.97;;;17.90;99.90;;;;;;5062351;28;20051;-68
2021/08/06 06:38:00;;;;;;;10.10;5.43;;;17.80;99.90;;;;;;5063108;28;20123;-68
2021/08/06 06:40:27;;;;;;;7.90;5.72;;;17.90;99.90;;;;;;5063649;28;20979;-68
2021/08/06 06:42:53;;;;;;;5.35;4.85;;;17.80;99.90;;;;;;5061503;28;20539;-68
2021/08/06 06:45:19;;;;;;;6.35;5.43;;;17.80;99.90;;;;;;5063135;28;20040;-68
2021/08/06 06:47:48;;;;;;;6.15;4.97;;;17.90;99.90;;;;;;5060070;28;20523;-68
2021/08/06 06:50:20;;;;;;;5.57;5.07;;;17.80;99.90;;;;;;5061533;28;20048;-68
2021/08/06 06:52:46;;;;;;;5.72;5.18;;;17.80;99.90;;;;;;5062438;28;20044;-68
2021/08/06 06:55:13;;;;;;;7.20;5.43;;;17.80;99.90;;;;;;5060614;28;20072;-68
2021/08/06 06:57:44;;;;;;;6.32;5.70;;;17.70;99.90;;;;;;5063432;28;20047;-68
2021/08/06 07:00:11;;;;;;;5.93;5.30;;;17.70;99.90;;;;;;5064794;28;20047;-68
2021/08/06 07:02:37;;;;;;;6.25;5.43;;;17.70;99.90;;;;;;5066025;28;20484;-68
2021/08/06 07:05:03;;;;;;;6.60;5.13;;;17.60;99.90;;;;;;5066265;28;20115;-68
2021/08/06 07:07:29;;;;;;;5.40;4.90;;;17.60;99.90;;;;;;5064138;28;20481;-68
2021/08/06 07:09:55;;;;;;;5.43;4.90;;;17.60;99.90;;;;;;5066853;28;20032;-68
2021/08/06 07:12:21;;;;;;;7.28;4.78;;;17.60;99.90;;;;;;5065144;28;20456;-67
2021/08/06 07:14:47;;;;;;;5.32;4.68;;;17.70;99.90;;;;;;5065655;28;20040;-68
2021/08/06 07:17:12;;;;;;;7.35;4.70;;;17.70;99.90;;;;;;5065260;28;20820;-68
2021/08/06 07:19:38;;;;;;;5.38;4.80;;;17.80;99.90;;;;;;5066143;28;20033;-68
2021/08/06 07:22:04;;;;;;;3.80;3.50;;;17.90;99.90;;;;;;5066029;28;20044;-68
2021/08/06 07:24:30;;;;;;;4.78;4.07;;;18.00;99.90;;;;;;5064608;28;20037;-68
2021/08/06 07:26:56;;;;;;;4.25;3.90;;;18.10;99.90;;;;;;5066462;28;20045;-68
2021/08/06 07:29:22;;;;;;;4.22;3.80;;;18.20;99.90;;;;;;5062604;28;20045;-68
2021/08/06 07:31:48;;;;;;;4.70;4.20;;;18.20;99.90;;;;;;5065474;28;20033;-68
2021/08/06 07:34:14;;;;;;;4.63;3.63;;;18.30;99.90;;;;;;5064909;28;20114;-68
2021/08/06 07:36:40;;;;;;;3.80;3.42;;;18.40;99.90;;;;;;5065640;28;20040;-68
2021/08/06 07:39:06;;;;;;;5.68;4.07;;;18.40;99.90;;;;;;5066278;28;20611;-68
2021/08/06 07:41:33;;;;;;;6.18;3.88;;;18.40;99.90;;;;;;5065317;28;20036;-68
2021/08/06 07:43:58;;;;;;;4.72;4.07;;;18.40;99.90;;;;;;5065714;28;20466;-68
2021/08/06 07:46:24;;;;;;;6.82;4.25;;;18.40;99.90;;;;;;5066304;28;20037;-68
2021/08/06 07:48:49;;;;;;;5.68;4.90;;;18.30;99.90;;;;;;5065332;28;20044;-68
2021/08/06 07:51:15;;;;;;;4.97;4.50;;;18.30;99.90;;;;;;5065074;28;20040;-69
2021/08/06 07:53:41;;;;;;;4.93;4.53;;;18.20;99.90;;;;;;5065142;28;20131;-69
2021/08/06 07:56:06;;;;;;;5.75;4.68;;;18.20;99.90;;;;;;5063767;28;20044;-68
2021/08/06 07:58:32;;;;;;;6.40;4.50;;;18.20;99.90;;;;;;5065983;28;20505;-68
2021/08/06 08:00:58;;;;;;;7.47;5.18;;;18.10;99.90;;;;;;5064608;28;20098;-68
2021/08/06 08:03:24;;;;;;;8.50;5.53;;;18.00;99.90;;;;;;5064564;28;20467;-68
2021/08/06 08:05:50;;;;;;;6.82;5.40;;;18.00;99.90;;;;;;5062800;28;20055;-68
2021/08/06 08:08:15;;;;;;;6.63;6.03;;;17.90;99.90;;;;;;5065107;28;20055;-68
2021/08/06 08:10:41;;;;;;;6.32;5.72;;;17.90;99.90;;;;;;5064139;28;20036;-68
2021/08/06 08:13:07;;;;;;;5.35;4.95;;;17.90;99.90;;;;;;5064592;28;20044;-68
2021/08/06 08:15:33;;;;;;;6.13;5.53;;;17.90;99.90;;;;;;5066242;28;20036;-68
2021/08/06 08:17:59;;;;;;;6.65;6.03;;;17.90;99.90;;;;;;5064697;28;20121;-68
2021/08/06 08:20:24;;;;;;;5.60;5.10;;;17.90;99.90;;;;;;5063371;28;20680;-68
2021/08/06 08:22:50;;;;;;;6.00;5.50;;;17.90;99.90;;;;;;5065551;28;20033;-68
2021/08/06 08:25:16;;;;;;;7.30;5.90;;;17.90;99.90;;;;;;5065281;28;20048;-68
2021/08/06 08:27:42;;;;;;;5.63;5.07;;;17.90;99.90;;;;;;5065116;28;20045;-68
2021/08/06 08:30:09;;;;;;;5.93;5.43;;;17.90;99.90;;;;;;5065318;28;20039;-68
2021/08/06 08:32:35;;;;;;;4.95;4.53;;;17.90;99.90;;;;;;5064568;28;20032;-68
2021/08/06 08:35:02;;;;;;;5.75;5.20;;;17.80;99.90;;;;;;5065735;28;20041;-68
2021/08/06 08:37:28;;;;;;;6.05;5.45;;;17.80;99.90;;;;;;5065803;28;20048;-68
2021/08/06 08:39:54;;;;;;;5.22;4.72;;;17.80;99.90;;;;;;5065835;28;20052;-68
2021/08/06 08:42:21;;;;;;;6.07;5.00;;;17.80;99.90;;;;;;5064587;28;20028;-68
2021/08/06 08:44:48;;;;;;;5.18;4.45;;;17.80;99.90;;;;;;5064176;28;20483;-68
2021/08/06 08:47:17;;;;;;;4.68;4.28;;;17.90;99.90;;;;;;5065253;28;20036;-68
2021/08/06 08:49:44;;;;;;;6.15;4.55;;;17.80;99.90;;;;;;5063902;28;20704;-68
2021/08/06 08:52:10;;;;;;;5.78;5.28;;;17.80;99.90;;;;;;5064645;28;20402;-68
2021/08/06 08:54:37;;;;;;;5.35;4.85;;;17.90;99.90;;;;;;5065480;28;20033;-69
2021/08/06 08:57:03;;;;;;;4.60;4.20;;;18.00;99.90;;;;;;5064758;28;20094;-69
2021/08/06 08:59:29;;;;;;;4.65;4.22;;;18.10;99.90;;;;;;5064982;28;20633;-68
2021/08/06 09:01:55;;;;;;;4.85;4.40;;;18.30;99.90;;;;;;5064708;28;20125;-69
2021/08/06 09:04:22;;;;;;;4.75;4.35;;;18.40;99.90;;;;;;5064320;28;20041;-69
2021/08/06 09:06:49;;;;;;;4.50;3.97;;;18.40;99.90;;;;;;5063961;28;20041;-68
2021/08/06 09:09:25;;;;;;;4.40;4.00;;;18.50;99.90;;;;;;5063346;28;20044;-69
2021/08/06 09:12:06;;;;;;;4.20;3.90;;;18.50;99.90;;;;;;5064451;28;20082;-69
2021/08/06 09:14:34;;;;;;;4.85;3.80;;;18.60;99.90;;;;;;5064191;28;20028;-69
2021/08/06 09:17:09;;;;;;;4.93;3.72;;;18.60;99.90;;;;;;5065013;28;20086;-68
2021/08/06 09:19:43;;;;;;;4.63;4.18;;;18.60;99.90;;;;;;5064059;28;20725;-68
2021/08/06 09:22:20;;;;;;;4.88;3.50;;;18.70;99.90;;;;;;5064742;28;20037;-68
2021/08/06 09:25:11;;;;;;;4.05;2.80;;;18.80;99.90;;;;;;5063954;28;20556;-68
2021/08/06 09:27:44;;;;;;;3.22;2.92;;;18.80;99.90;;;;;;5064783;28;20032;-68
2021/08/06 09:30:31;;;;;;;4.22;3.10;;;19.00;99.90;;;;;;5062849;28;20048;-68
2021/08/06 09:32:57;;;;;;;3.58;3.25;;;19.30;99.90;;;;;;5063127;28;20106;-69
2021/08/06 09:35:31;;;;;;;2.72;2.25;;;19.80;99.90;;;;;;5063379;28;20048;-69
2021/08/06 09:37:57;;;;;;;1.40;1.30;;;20.20;99.90;;;;;;5064392;28;20571;-69
2021/08/06 09:40:26;;;;;;;1.80;1.63;;;20.50;99.90;;;;;;5063419;28;20210;-68
2021/08/06 09:43:03;;;;;;;2.63;1.73;;;20.60;99.90;;;;;;5064815;28;20040;-69
2021/08/06 09:45:38;;;;;;;2.83;1.60;;;20.80;99.90;;;;;;5064013;28;20040;-69
2021/08/06 09:48:05;;;;;;;2.88;1.73;;;21.00;99.90;;;;;;5063605;28;20109;-69
2021/08/06 09:50:38;;;;;;;1.55;1.25;;;21.20;99.90;;;;;;5063060;28;20124;-69
2021/08/06 09:53:06;;;;;;;1.65;1.45;;;21.50;99.90;;;;;;5064680;28;20415;-69
2021/08/06 09:55:35;;;;;;;2.75;1.90;;;21.60;99.90;;;;;;5063693;28;20028;-69
2021/08/06 09:58:06;;;;;;;1.98;1.73;;;21.80;99.90;;;;;;5063193;28;20036;-69
2021/08/06 10:00:33;;;;;;;3.08;2.58;;;21.90;99.90;;;;;;5064094;28;20041;-69
2021/08/06 10:02:59;;;;;;;2.70;1.65;;;21.80;99.90;;;;;;5064088;28;20067;-69
2021/08/06 10:05:28;;;;;;;2.90;1.80;;;21.90;99.90;;;;;;5064159;28;20056;-69
2021/08/06 10:07:56;;;;;;;2.40;1.60;;;21.80;99.90;;;;;;5063030;28;20086;-69
2021/08/06 10:10:30;;;;;;;4.13;1.60;;;21.70;99.90;;;;;;5063220;28;20072;-69
2021/08/06 10:12:57;;;;;;;1.90;1.75;;;21.50;99.90;;;;;;5064152;28;20072;-69
2021/08/06 10:15:24;;;;;;;2.30;1.83;;;21.30;99.90;;;;;;5063473;28;20071;-69
2021/08/06 10:17:51;;;;;;;4.03;1.80;;;21.10;99.90;;;;;;5064262;28;20039;-69
2021/08/06 10:20:20;;;;;;;2.65;2.28;;;21.20;99.90;;;;;;5063610;28;20032;-69
2021/08/06 10:22:45;;;;;;;2.13;1.48;;;21.40;99.90;;;;;;5063495;28;20067;-69
2021/08/06 10:25:13;;;;;;;1.50;1.40;;;21.60;99.90;;;;;;5062737;28;20058;-69
2021/08/06 10:27:42;;;;;;;3.50;1.85;;;21.70;99.90;;;;;;5064296;28;20028;-69
2021/08/06 10:30:21;;;;;;;2.55;1.60;;;21.60;99.90;;;;;;5062215;28;20086;-69
2021/08/06 10:33:22;;;;;;;2.13;1.90;;;21.50;99.90;;;;;;5063849;28;20040;-69
2021/08/06 10:35:51;;;;;;;2.80;1.92;;;21.50;99.90;;;;;;5066639;28;20040;-68
2021/08/06 10:38:38;;;;;;;2.42;2.22;;;21.50;99.90;;;;;;5067711;28;20184;-69
2021/08/06 10:41:17;;;;;;;4.00;2.95;;;21.80;99.90;;;;;;5067302;28;20036;-69
2021/08/06 10:43:55;;;;;;;1.98;1.77;;;22.10;99.90;;;;;;5065985;28;20037;-69
2021/08/06 10:46:21;;;;;;;2.08;1.67;;;22.30;99.90;;;;;;5067432;28;20119;-69
2021/08/06 10:48:51;;;;;;;4.85;2.22;;;22.30;99.90;;;;;;5066286;28;20131;-69
2021/08/06 10:51:16;;;;;;;4.18;2.05;;;22.50;99.90;;;;;;5067084;28;20037;-69
2021/08/06 10:53:48;;;;;;;3.03;2.70;;;22.60;99.90;;;;;;5065784;28;20094;-69
2021/08/06 10:56:38;;;;;;;3.05;2.75;;;22.70;99.90;;;;;;5067054;28;20037;-69
2021/08/06 10:59:10;;;;;;;2.85;2.20;;;22.50;99.90;;;;;;5067390;28;20604;-69
2021/08/06 11:01:45;;;;;;;3.70;2.67;;;22.20;99.90;;;;;;5066326;28;20143;-69
2021/08/06 11:04:10;;;;;;;7.90;3.33;;;22.00;99.90;;;;;;5067122;28;20041;-69
2021/08/06 11:06:40;;;;;;;6.20;3.00;;;21.90;99.90;;;;;;5066857;28;20360;-69
2021/08/06 11:09:07;;;;;;;4.15;3.00;;;22.10;99.90;;;;;;5066232;28;20045;-69
2021/08/06 11:11:58;;;;;;;6.43;3.03;;;22.30;99.90;;;;;;5065485;28;20830;-69
2021/08/06 11:14:32;;;;;;;4.10;3.45;;;22.70;99.90;;;;;;5065655;28;20045;-69
2021/08/06 11:17:11;;;;;;;5.82;3.10;;;23.10;99.90;;;;;;5067461;28;20040;-69
2021/08/06 11:19:52;;;;;;;3.10;2.40;;;23.30;99.90;;;;;;5065393;28;20095;-69
2021/08/06 11:22:31;;;;;;;5.80;2.35;;;23.40;99.90;;;;;;5065213;28;20046;-69
2021/08/06 11:25:05;;;;;;;2.78;2.00;;;23.50;99.90;;;;;;5066854;28;20117;-69
2021/08/06 11:27:32;;;;;;;5.13;2.28;;;23.40;99.90;;;;;;5078306;28;20040;-69
2021/08/06 11:30:12;;;;;;;7.22;2.72;;;23.20;99.90;;;;;;5066466;28;20386;-69
2021/08/06 11:33:01;;;;;;;3.53;2.60;;;23.40;99.90;;;;;;5064792;28;20135;-69
2021/08/06 11:35:35;;;;;;;3.42;2.25;;;23.40;99.90;;;;;;5067012;28;20103;-69
2021/08/06 11:38:09;;;;;;;5.38;3.00;;;23.30;99.90;;;;;;5066504;28;20563;-69
2021/08/06 11:40:40;;;;;;;3.63;2.20;;;23.20;99.90;;;;;;5066890;28;20050;-69
2021/08/06 11:43:20;;;;;;;3.72;2.60;;;23.00;99.90;;;;;;5065051;28;20638;-69
2021/08/06 11:45:49;;;;;;;5.38;3.17;;;22.90;99.90;;;;;;5066059;28;20036;-69
2021/08/06 11:48:15;;;;;;;5.38;2.65;;;22.70;99.90;;;;;;5065247;28;20052;-69
2021/08/06 11:50:42;;;;;;;5.35;3.22;;;22.50;99.90;;;;;;5066378;28;20049;-69
2021/08/06 11:53:18;;;;;;;6.88;3.50;;;22.50;99.90;;;;;;5067084;28;20177;-69
2021/08/06 11:55:45;;;;;;;4.82;2.90;;;22.60;99.90;;;;;;5066013;28;20048;-69
2021/08/06 11:58:11;;;;;;;3.33;2.55;;;22.60;99.90;;;;;;5065989;28;20036;-69
2021/08/06 12:00:38;;;;;;;4.78;2.88;;;22.60;99.90;;;;;;5066172;28;20043;-69
2021/08/06 12:03:14;;;;;;;4.47;2.67;;;22.60;99.90;;;;;;5066437;28;20135;-69
2021/08/06 12:05:42;;;;;;;5.20;2.90;;;22.40;99.90;;;;;;5065814;28;20096;-69
2021/08/06 12:08:40;;;;;;;9.00;2.63;;;22.40;99.90;;;;;;5066317;28;20036;-69
2021/08/06 12:11:06;;;;;;;4.15;2.65;;;22.40;99.90;;;;;;5064204;28;20117;-69
2021/08/06 12:14:01;;;;;;;4.38;2.38;;;22.50;99.90;;;;;;5065130;28;20485;-69
2021/08/06 12:16:36;;;;;;;5.15;2.08;;;22.60;99.90;;;;;;5062975;28;20460;-68
2021/08/06 12:19:03;;;;;;;5.10;2.22;;;22.60;99.90;;;;;;5064253;28;20051;-68
2021/08/06 12:21:32;;;;;;;3.20;1.83;;;22.50;99.90;;;;;;5066426;28;20045;-68
2021/08/06 12:23:57;;;;;;;5.75;1.90;;;22.40;99.90;;;;;;5065713;28;20938;-69
2021/08/06 12:26:39;;;;;;;2.85;2.00;;;22.30;99.90;;;;;;5065856;28;20106;-69
2021/08/06 12:29:08;;;;;;;7.78;3.40;;;22.10;99.90;;;;;;5064882;28;20044;-69
2021/08/06 12:31:45;;;;;;;8.50;3.08;;;21.90;99.90;;;;;;5065975;28;20039;-69
2021/08/06 12:34:12;;;;;;;4.30;3.40;;;21.70;99.90;;;;;;5064951;28;20098;-69
2021/08/06 12:36:50;;;;;;;7.15;4.10;;;21.70;99.90;;;;;;5064988;28;20106;-69
2021/08/06 12:39:16;;;;;;;6.60;2.92;;;21.80;99.90;;;;;;5064194;28;20619;-69
2021/08/06 12:41:46;;;;;;;7.30;3.60;;;21.80;99.90;;;;;;5065773;28;20044;-69
2021/08/06 12:44:17;;;;;;;6.85;3.58;;;22.00;99.90;;;;;;5063793;28;20047;-69
2021/08/06 12:46:58;;;;;;;5.68;4.03;;;22.10;99.90;;;;;;5064823;28;20047;-69